Tacoma, Washington
Current Conditions -  °F | °C
As of 2:28 AM on Monday 26 Jan 2015 (Local Time) from KTCM Reporting Station
Moderate Fog Moderate Fog  
Wind Chill: 40°   Ceiling: 100
Heat Index: 43°   Visibility: 0.5mi
Dew Point: 43°   Wind: 5mph
Humidity: 100%   Direction: 210°SSW
Pressure: 29.95"   Gusts: NA
Location:  47.26°N, 122.44°W
Report Text: KTCM 261028Z AUTO 21004KT 1/2SM R16/2000FT FG VV001 06/06 A2995 RMK AO2
Loading
Personal Weather Stations






























Interactive Weather Map New forecast layout! Learn more

10-Day Weather Forecast

Advertisements
Track Severe Weather on mobile